createdAt,value
2023-02-21T00:02:07.249Z,6.41
2023-02-21T00:04:53.650Z,6.37
2023-02-21T00:07:40.602Z,6.38
2023-02-21T00:10:28.196Z,6.40
2023-02-21T00:13:14.534Z,6.32
2023-02-21T00:16:01.109Z,6.30
2023-02-21T00:18:47.761Z,6.36
2023-02-21T00:21:34.507Z,6.30
2023-02-21T00:24:20.456Z,6.41
2023-02-21T00:27:06.808Z,6.26
2023-02-21T00:29:53.232Z,6.32
2023-02-21T00:32:40.217Z,6.33
2023-02-21T00:35:26.132Z,6.39
2023-02-21T00:38:12.628Z,6.37
2023-02-21T00:40:58.525Z,6.29
2023-02-21T00:43:53.076Z,6.37
2023-02-21T00:46:40.667Z,6.33
2023-02-21T00:49:28.326Z,6.36
2023-02-21T00:52:14.349Z,6.34
2023-02-21T00:55:01.011Z,6.38
2023-02-21T00:57:47.265Z,6.17
2023-02-21T01:00:37.851Z,6.28
2023-02-21T01:03:24.493Z,6.26
2023-02-21T01:06:11.516Z,6.18
2023-02-21T01:09:05.040Z,6.13
2023-02-21T01:11:51.587Z,6.12
2023-02-21T01:14:37.786Z,6.11
2023-02-21T01:17:24.515Z,6.14
2023-02-21T01:20:10.843Z,6.12
2023-02-21T01:22:57.404Z,6.14
2023-02-21T01:25:43.410Z,6.12
2023-02-21T01:28:29.557Z,6.10
2023-02-21T01:31:15.717Z,6.10
2023-02-21T01:34:02.733Z,5.97
2023-02-21T01:36:49.120Z,6.03
2023-02-21T01:39:35.493Z,5.98
2023-02-21T01:42:21.647Z,5.97
2023-02-21T01:45:07.926Z,5.86
2023-02-21T01:47:53.949Z,5.79
2023-02-21T01:50:46.883Z,5.78
2023-02-21T01:53:36.979Z,5.69
2023-02-21T01:56:25.009Z,5.65
2023-02-21T01:59:13.092Z,5.64
2023-02-21T02:02:13.204Z,5.62
2023-02-21T02:05:00.887Z,5.58
2023-02-21T02:07:47.214Z,5.57
2023-02-21T02:10:33.897Z,5.58
2023-02-21T02:13:41.066Z,5.50
2023-02-21T02:16:18.957Z,5.47
2023-02-21T02:19:27.648Z,5.41
2023-02-21T02:22:32.189Z,5.38
2023-02-21T02:25:14.813Z,5.42
2023-02-21T02:28:23.364Z,5.40
2023-02-21T02:31:13.578Z,5.56
2023-02-21T02:34:09.645Z,5.60
2023-02-21T02:36:43.271Z,5.78
2023-02-21T02:39:28.354Z,5.74
2023-02-21T02:42:06.710Z,5.85
2023-02-21T02:44:40.751Z,5.70
2023-02-21T02:47:16.699Z,5.76
2023-02-21T02:49:45.503Z,5.73
2023-02-21T02:52:13.223Z,5.99
2023-02-21T02:54:40.760Z,5.92
2023-02-21T02:57:12.945Z,6.05
2023-02-21T02:59:45.188Z,6.09
2023-02-21T03:02:50.529Z,6.39
2023-02-21T03:05:44.067Z,6.55
2023-02-21T03:08:25.270Z,6.64
2023-02-21T03:11:19.349Z,6.62
2023-02-21T03:13:57.760Z,6.59
2023-02-21T03:16:28.364Z,6.88
2023-02-21T03:19:19.916Z,6.81
2023-02-21T03:22:10.254Z,6.78
2023-02-21T03:24:39.576Z,6.86
2023-02-21T03:27:08.542Z,6.79
2023-02-21T03:29:38.266Z,6.68
2023-02-21T03:32:14.143Z,6.68
2023-02-21T03:34:43.228Z,6.68
2023-02-21T03:37:31.028Z,6.65
2023-02-21T03:39:58.735Z,6.61
2023-02-21T03:42:27.428Z,6.61
2023-02-21T03:44:55.214Z,6.52
2023-02-21T03:47:23.360Z,6.42
2023-02-21T03:49:51.616Z,6.50
2023-02-21T03:52:19.411Z,6.33
2023-02-21T03:54:47.217Z,6.21
2023-02-21T03:57:15.654Z,6.16
2023-02-21T03:59:45.541Z,6.11
2023-02-21T04:02:14.490Z,6.04
2023-02-21T04:04:42.890Z,6.00
2023-02-21T04:07:11.620Z,5.92
2023-02-21T04:09:40.383Z,5.83
2023-02-21T04:12:08.692Z,5.83
2023-02-21T04:14:36.520Z,5.87
2023-02-21T04:17:04.470Z,5.97
2023-02-21T04:19:33.478Z,5.96
2023-02-21T04:22:02.779Z,5.99
2023-02-21T04:24:32.474Z,5.91
2023-02-21T04:27:02.337Z,6.02
2023-02-21T04:29:31.040Z,6.01
2023-02-21T04:31:58.656Z,6.05
2023-02-21T04:34:26.514Z,6.09
2023-02-21T04:36:54.724Z,6.11
2023-02-21T04:39:22.325Z,6.10
2023-02-21T04:41:50.297Z,6.16
2023-02-21T04:44:18.361Z,6.11
2023-02-21T04:46:46.128Z,6.09
2023-02-21T04:49:14.186Z,6.08
2023-02-21T04:51:42.384Z,6.03
2023-02-21T04:54:09.918Z,6.03
2023-02-21T04:56:38.087Z,6.11
2023-02-21T04:59:05.856Z,6.14
2023-02-21T05:01:33.522Z,6.15
2023-02-21T05:04:01.699Z,6.12
2023-02-21T05:06:30.465Z,6.13
2023-02-21T05:08:59.133Z,6.12
2023-02-21T05:11:27.381Z,6.24
2023-02-21T05:13:55.001Z,6.29
2023-02-21T05:16:22.585Z,6.32
2023-02-21T05:18:52.260Z,6.29
2023-02-21T05:21:20.324Z,6.32
2023-02-21T05:23:57.277Z,6.31
2023-02-21T05:26:27.530Z,6.28
2023-02-21T05:28:55.123Z,6.25
2023-02-21T05:31:22.797Z,6.20
2023-02-21T05:33:50.848Z,6.27
2023-02-21T05:36:18.418Z,6.25
2023-02-21T05:38:51.571Z,6.21
2023-02-21T05:41:19.999Z,6.13
2023-02-21T05:43:48.824Z,6.15
2023-02-21T05:46:22.378Z,6.04
2023-02-21T05:48:50.562Z,6.04
2023-02-21T05:51:18.855Z,6.13
2023-02-21T05:53:46.814Z,6.19
2023-02-21T05:56:14.998Z,6.26
2023-02-21T05:58:42.724Z,6.15
2023-02-21T06:01:10.371Z,6.26
2023-02-21T06:03:38.343Z,6.49
2023-02-21T06:06:06.178Z,6.29
2023-02-21T06:08:42.683Z,6.27
2023-02-21T06:11:11.062Z,6.80
2023-02-21T06:13:38.739Z,6.75
2023-02-21T06:16:07.176Z,6.85
2023-02-21T06:18:36.406Z,6.71
2023-02-21T06:21:04.066Z,6.74
2023-02-21T06:23:31.763Z,6.78
2023-02-21T06:25:59.841Z,6.96
2023-02-21T06:28:31.660Z,6.88
2023-02-21T06:30:59.818Z,7.17
2023-02-21T06:33:27.366Z,7.07
2023-02-21T06:35:54.912Z,7.18
2023-02-21T06:38:22.944Z,7.05
2023-02-21T06:40:51.048Z,7.05
2023-02-21T06:43:19.282Z,7.09
2023-02-21T06:45:47.201Z,7.17
2023-02-21T06:48:16.358Z,7.19
2023-02-21T06:50:43.954Z,7.28
2023-02-21T06:53:11.887Z,7.35
2023-02-21T06:55:39.428Z,7.49
2023-02-21T06:58:07.068Z,7.63
2023-02-21T07:00:34.982Z,7.93
2023-02-21T07:03:06.260Z,7.97
2023-02-21T07:05:38.657Z,8.07
2023-02-21T07:08:06.260Z,8.13
2023-02-21T07:10:35.248Z,8.36
2023-02-21T07:13:03.386Z,8.45
2023-02-21T07:15:31.030Z,8.63
2023-02-21T07:17:58.610Z,8.72
2023-02-21T07:20:27.591Z,8.75
2023-02-21T07:22:55.043Z,9.03
2023-02-21T07:25:22.959Z,9.10
2023-02-21T07:27:52.780Z,9.23
2023-02-21T07:30:20.896Z,9.15
2023-02-21T07:32:48.466Z,9.24
2023-02-21T07:35:16.465Z,9.47
2023-02-21T07:37:44.095Z,9.59
2023-02-21T07:40:11.784Z,9.73
2023-02-21T07:42:43.727Z,9.76
2023-02-21T07:45:12.046Z,9.96
2023-02-21T07:47:39.926Z,10.17
2023-02-21T07:50:08.244Z,10.23
2023-02-21T07:52:36.344Z,10.34
2023-02-21T07:55:04.597Z,10.58
2023-02-21T07:57:32.218Z,10.98
2023-02-21T08:00:00.226Z,11.00
2023-02-21T08:02:28.123Z,11.07
2023-02-21T08:04:55.976Z,11.62
2023-02-21T08:07:25.287Z,11.60
2023-02-21T08:09:54.375Z,11.67
2023-02-21T08:12:22.682Z,11.79
2023-02-21T08:14:50.221Z,11.82
2023-02-21T08:17:17.760Z,11.91
2023-02-21T08:19:45.616Z,11.94
2023-02-21T08:22:13.218Z,11.89
2023-02-21T08:24:40.779Z,11.88
2023-02-21T08:27:08.761Z,12.11
2023-02-21T08:29:36.480Z,12.16
2023-02-21T08:32:04.158Z,12.21
2023-02-21T08:34:32.257Z,12.30
2023-02-21T08:36:59.866Z,12.33
2023-02-21T08:39:30.264Z,12.39
2023-02-21T08:41:58.082Z,12.62
2023-02-21T08:44:25.587Z,12.65
2023-02-21T08:46:53.184Z,12.76
2023-02-21T08:49:21.177Z,12.79
2023-02-21T08:51:48.806Z,12.89
2023-02-21T08:54:16.458Z,12.82
2023-02-21T08:56:44.295Z,12.82
2023-02-21T08:59:11.974Z,12.99
2023-02-21T09:01:39.737Z,12.96
2023-02-21T09:04:07.779Z,12.90
2023-02-21T09:06:35.395Z,13.06
2023-02-21T09:09:02.971Z,13.13
2023-02-21T09:11:30.780Z,13.19
2023-02-21T09:13:58.470Z,13.40
2023-02-21T09:16:27.145Z,13.44
2023-02-21T09:18:56.934Z,13.66
2023-02-21T09:21:25.423Z,13.81
2023-02-21T09:23:57.072Z,13.71
2023-02-21T09:26:26.146Z,13.75
2023-02-21T09:28:53.702Z,13.85
2023-02-21T09:31:21.686Z,14.02
2023-02-21T09:33:49.974Z,14.23
2023-02-21T09:36:23.714Z,14.19
2023-02-21T09:38:51.866Z,14.21
2023-02-21T09:41:19.912Z,14.37
2023-02-21T09:43:49.520Z,14.65
2023-02-21T09:46:32.442Z,14.70
2023-02-21T09:49:01.525Z,14.66
2023-02-21T09:51:32.209Z,14.84
2023-02-21T09:54:00.790Z,14.94
2023-02-21T09:56:34.266Z,14.99
2023-02-21T09:59:02.222Z,15.21
2023-02-21T10:01:39.209Z,15.41
2023-02-21T10:04:33.228Z,15.64
2023-02-21T10:07:13.383Z,15.88
2023-02-21T10:09:47.405Z,15.73
2023-02-21T10:12:19.561Z,15.82
2023-02-21T10:15:08.879Z,16.01
2023-02-21T10:17:50.941Z,16.21
2023-02-21T10:20:47.204Z,16.16
2023-02-21T10:23:30.917Z,16.02
2023-02-21T10:26:07.548Z,16.04
2023-02-21T10:28:35.944Z,16.09
2023-02-21T10:31:14.662Z,16.29
2023-02-21T10:33:42.675Z,16.18
2023-02-21T10:36:23.266Z,16.25
2023-02-21T10:38:54.892Z,16.13
2023-02-21T10:41:23.458Z,16.26
2023-02-21T10:43:55.313Z,16.52
2023-02-21T10:46:28.712Z,16.46
2023-02-21T10:49:30.540Z,16.56
2023-02-21T10:52:04.489Z,16.45
2023-02-21T10:54:35.040Z,16.41
2023-02-21T10:57:12.390Z,16.79
2023-02-21T10:59:45.838Z,16.64
2023-02-21T11:02:29.537Z,16.58
2023-02-21T11:05:08.659Z,16.83
2023-02-21T11:07:36.703Z,16.80
2023-02-21T11:10:48.234Z,16.94
2023-02-21T11:13:17.410Z,16.66
2023-02-21T11:15:45.764Z,16.80
2023-02-21T11:18:27.104Z,16.64
2023-02-21T11:20:55.073Z,16.86
2023-02-21T11:23:28.254Z,16.73
2023-02-21T11:26:07.838Z,16.90
2023-02-21T11:28:44.155Z,17.19
2023-02-21T11:31:19.662Z,17.15
2023-02-21T11:34:09.512Z,17.29
2023-02-21T11:36:40.266Z,17.14
2023-02-21T11:39:18.769Z,17.26
2023-02-21T11:41:56.481Z,17.38
2023-02-21T11:44:37.747Z,17.38
2023-02-21T11:47:14.535Z,17.26
2023-02-21T11:50:01.616Z,17.29
2023-02-21T11:52:55.435Z,17.30
2023-02-21T11:55:26.365Z,17.34
2023-02-21T11:58:11.628Z,17.27
2023-02-21T12:01:01.982Z,17.24
2023-02-21T12:03:41.756Z,17.37
2023-02-21T12:07:11.705Z,17.48
2023-02-21T12:10:16.098Z,17.45
2023-02-21T12:13:11.870Z,17.52
2023-02-21T12:16:01.322Z,17.40
2023-02-21T12:19:01.094Z,17.46
2023-02-21T12:22:04.036Z,17.35
2023-02-21T12:24:49.941Z,17.28
2023-02-21T12:27:28.122Z,17.46
2023-02-21T12:30:02.594Z,17.52
2023-02-21T12:32:57.456Z,17.49
2023-02-21T12:35:40.162Z,17.64
2023-02-21T12:38:43.704Z,17.58
2023-02-21T12:41:23.467Z,17.59
2023-02-21T12:44:29.563Z,17.64
2023-02-21T12:47:20.441Z,17.64
2023-02-21T12:49:59.144Z,17.63
2023-02-21T12:52:32.780Z,17.57
2023-02-21T12:55:03.730Z,17.56
2023-02-21T12:57:59.473Z,17.70
2023-02-21T13:01:04.406Z,17.67
2023-02-21T13:03:55.836Z,17.61
2023-02-21T13:06:36.975Z,17.64
2023-02-21T13:09:30.316Z,17.49
2023-02-21T13:12:00.856Z,17.56
2023-02-21T13:14:52.803Z,17.57
2023-02-21T13:17:21.326Z,17.30
2023-02-21T13:20:06.617Z,17.39
2023-02-21T13:23:32.193Z,17.19
2023-02-21T13:26:30.433Z,17.09
2023-02-21T13:28:58.815Z,17.29
2023-02-21T13:31:39.429Z,17.10
2023-02-21T13:34:09.917Z,17.16
2023-02-21T13:36:43.526Z,17.25
2023-02-21T13:39:40.762Z,17.25
2023-02-21T13:42:11.568Z,17.39
2023-02-21T13:44:42.904Z,17.32
2023-02-21T13:47:17.813Z,17.25
2023-02-21T13:50:30.570Z,17.29
2023-02-21T13:53:14.295Z,17.14
2023-02-21T13:56:08.109Z,17.03
2023-02-21T13:58:38.062Z,17.09
2023-02-21T14:01:41.412Z,17.13
2023-02-21T14:04:49.436Z,16.97
2023-02-21T14:07:17.104Z,16.97
2023-02-21T14:09:46.414Z,16.92
2023-02-21T14:12:16.482Z,17.07
2023-02-21T14:14:46.659Z,16.98
2023-02-21T14:17:14.928Z,17.12
2023-02-21T14:19:49.139Z,17.04
2023-02-21T14:22:21.987Z,17.15
2023-02-21T14:25:24.434Z,17.15
2023-02-21T14:28:25.742Z,17.06
2023-02-21T14:31:03.528Z,17.09
2023-02-21T14:33:33.066Z,17.01
2023-02-21T14:36:05.442Z,16.99
2023-02-21T14:38:38.013Z,17.01
2023-02-21T14:41:18.739Z,17.00
2023-02-21T14:43:56.053Z,16.92
2023-02-21T14:46:31.068Z,16.93
2023-02-21T14:49:22.008Z,16.93
2023-02-21T14:52:05.491Z,16.84
2023-02-21T14:55:10.817Z,16.65
2023-02-21T14:57:53.476Z,16.62
2023-02-21T15:00:30.493Z,16.59
2023-02-21T15:03:07.357Z,16.54
2023-02-21T15:05:39.224Z,16.47
2023-02-21T15:08:24.114Z,16.49
2023-02-21T15:10:56.373Z,16.45
2023-02-21T15:13:28.154Z,16.47
2023-02-21T15:16:01.880Z,16.39
2023-02-21T15:18:31.278Z,16.30
2023-02-21T15:21:03.703Z,16.22
2023-02-21T15:23:31.657Z,16.12
2023-02-21T15:26:02.804Z,16.08
2023-02-21T15:28:32.424Z,16.05
2023-02-21T15:31:03.717Z,15.96
2023-02-21T15:33:35.931Z,15.86
2023-02-21T15:36:07.527Z,15.87
2023-02-21T15:38:50.113Z,15.73
2023-02-21T15:41:26.752Z,15.75
2023-02-21T15:44:01.215Z,15.67
2023-02-21T15:46:34.378Z,15.58
2023-02-21T15:49:04.092Z,15.56
2023-02-21T15:51:32.175Z,15.47
2023-02-21T15:54:18.233Z,15.40
2023-02-21T15:56:46.099Z,15.32
2023-02-21T15:59:26.028Z,15.32
2023-02-21T16:02:15.603Z,15.19
2023-02-21T16:04:48.446Z,15.08
2023-02-21T16:07:22.102Z,14.98
2023-02-21T16:10:00.623Z,14.88
2023-02-21T16:12:33.681Z,14.88
2023-02-21T16:15:24.330Z,14.71
2023-02-21T16:17:57.190Z,14.55
2023-02-21T16:20:33.570Z,14.41
2023-02-21T16:23:19.836Z,14.32
2023-02-21T16:26:07.017Z,14.22
2023-02-21T16:28:36.248Z,14.28
2023-02-21T16:31:06.705Z,14.17
2023-02-21T16:33:34.762Z,14.13
2023-02-21T16:36:07.389Z,13.93
2023-02-21T16:38:35.321Z,13.76
2023-02-21T16:41:03.465Z,13.71
2023-02-21T16:43:31.002Z,13.59
2023-02-21T16:45:59.299Z,13.57
2023-02-21T16:48:33.279Z,13.52
2023-02-21T16:51:03.828Z,13.66
2023-02-21T16:53:32.070Z,13.60
2023-02-21T16:56:01.628Z,13.52
2023-02-21T16:58:36.583Z,13.33
2023-02-21T17:01:13.199Z,13.27
2023-02-21T17:03:42.392Z,13.23
2023-02-21T17:06:17.974Z,13.21
2023-02-21T17:08:45.969Z,13.21
2023-02-21T17:11:14.305Z,13.03
2023-02-21T17:13:43.546Z,12.89
2023-02-21T17:16:11.552Z,12.73
2023-02-21T17:18:39.164Z,12.74
2023-02-21T17:21:06.827Z,12.57
2023-02-21T17:23:34.763Z,12.45
2023-02-21T17:26:02.321Z,12.30
2023-02-21T17:28:30.184Z,12.23
2023-02-21T17:30:58.239Z,12.16
2023-02-21T17:33:25.907Z,12.28
2023-02-21T17:35:53.737Z,12.11
2023-02-21T17:38:21.722Z,12.15
2023-02-21T17:40:49.647Z,12.04
2023-02-21T17:43:17.713Z,11.92
2023-02-21T17:45:46.297Z,11.80
2023-02-21T17:48:14.272Z,11.79
2023-02-21T17:50:42.371Z,11.68
2023-02-21T17:53:10.712Z,11.59
2023-02-21T17:55:38.537Z,11.56
2023-02-21T17:58:06.332Z,11.55
2023-02-21T18:00:35.579Z,11.46
2023-02-21T18:03:04.094Z,11.41
2023-02-21T18:05:31.914Z,11.42
2023-02-21T18:07:59.723Z,11.45
2023-02-21T18:10:28.169Z,11.35
2023-02-21T18:12:56.820Z,11.34
2023-02-21T18:15:27.536Z,11.31
2023-02-21T18:17:56.285Z,11.30
2023-02-21T18:20:24.972Z,11.24
2023-02-21T18:22:53.141Z,11.15
2023-02-21T18:25:24.266Z,11.13
2023-02-21T18:27:52.156Z,11.08
2023-02-21T18:30:20.402Z,11.03
2023-02-21T18:32:48.512Z,10.93
2023-02-21T18:35:16.887Z,10.86
2023-02-21T18:37:47.201Z,10.77
2023-02-21T18:40:16.970Z,10.71
2023-02-21T18:42:47.680Z,10.60
2023-02-21T18:45:15.891Z,10.47
2023-02-21T18:47:43.917Z,10.45
2023-02-21T18:50:12.873Z,10.49
2023-02-21T18:52:41.868Z,10.42
2023-02-21T18:55:10.064Z,10.35
2023-02-21T18:57:39.954Z,10.29
2023-02-21T19:00:09.046Z,10.13
2023-02-21T19:02:39.427Z,10.10
2023-02-21T19:05:07.757Z,10.07
2023-02-21T19:07:36.627Z,10.03
2023-02-21T19:10:05.376Z,9.90
2023-02-21T19:12:33.131Z,9.90
2023-02-21T19:15:01.405Z,9.74
2023-02-21T19:17:29.690Z,9.73
2023-02-21T19:20:10.893Z,9.72
2023-02-21T19:22:39.268Z,9.63
2023-02-21T19:25:07.314Z,9.61
2023-02-21T19:27:35.445Z,9.51
2023-02-21T19:30:05.448Z,9.49
2023-02-21T19:32:36.519Z,9.47
2023-02-21T19:35:06.062Z,9.52
2023-02-21T19:37:33.712Z,9.57
2023-02-21T19:40:07.415Z,9.51
2023-02-21T19:42:36.017Z,9.45
2023-02-21T19:45:03.976Z,9.42
2023-02-21T19:47:31.858Z,9.36
2023-02-21T19:50:01.672Z,9.34
2023-02-21T19:52:29.809Z,9.30
2023-02-21T19:54:57.604Z,9.29
2023-02-21T19:57:25.449Z,9.21
2023-02-21T19:59:53.493Z,9.16
2023-02-21T20:02:21.417Z,9.15
2023-02-21T20:04:49.925Z,9.17
2023-02-21T20:07:18.808Z,9.15
2023-02-21T20:09:48.250Z,9.11
2023-02-21T20:12:19.142Z,9.02
2023-02-21T20:14:48.713Z,8.96
2023-02-21T20:17:18.142Z,9.05
2023-02-21T20:19:46.083Z,9.08
2023-02-21T20:22:14.094Z,9.09
2023-02-21T20:24:45.834Z,9.00
2023-02-21T20:27:15.256Z,8.94
2023-02-21T20:29:44.389Z,8.88
2023-02-21T20:32:15.737Z,8.82
2023-02-21T20:34:44.165Z,8.78
2023-02-21T20:37:12.137Z,8.73
2023-02-21T20:39:40.503Z,8.82
2023-02-21T20:42:08.762Z,8.70
2023-02-21T20:44:38.282Z,8.60
2023-02-21T20:47:06.684Z,8.52
2023-02-21T20:49:36.368Z,8.42
2023-02-21T20:52:05.020Z,8.37
2023-02-21T20:54:32.709Z,8.41
2023-02-21T20:57:01.016Z,8.47
2023-02-21T20:59:35.151Z,8.45
2023-02-21T21:02:03.614Z,8.48
2023-02-21T21:04:35.300Z,8.59
2023-02-21T21:07:09.033Z,8.63
2023-02-21T21:09:37.775Z,8.70
2023-02-21T21:12:09.372Z,8.59
2023-02-21T21:14:41.560Z,8.45
2023-02-21T21:17:12.960Z,8.44
2023-02-21T21:19:42.371Z,8.34
2023-02-21T21:22:13.471Z,8.39
2023-02-21T21:24:41.584Z,8.40
2023-02-21T21:27:14.947Z,8.39
2023-02-21T21:29:44.612Z,8.39
2023-02-21T21:32:21.828Z,8.37
2023-02-21T21:34:52.084Z,8.45
2023-02-21T21:37:22.981Z,8.36
2023-02-21T21:39:54.694Z,8.42
2023-02-21T21:42:27.496Z,8.47
2023-02-21T21:44:56.970Z,8.67
2023-02-21T21:47:32.070Z,8.74
2023-02-21T21:50:02.516Z,8.75
2023-02-21T21:52:30.322Z,8.84
2023-02-21T21:54:58.525Z,8.99
2023-02-21T21:57:27.120Z,9.05
2023-02-21T21:59:57.412Z,9.26
2023-02-21T22:02:25.031Z,9.09
2023-02-21T22:04:53.460Z,9.28
2023-02-21T22:07:21.079Z,9.24
2023-02-21T22:09:49.563Z,9.21
2023-02-21T22:12:18.250Z,9.19
2023-02-21T22:14:45.737Z,9.20
2023-02-21T22:17:13.269Z,9.06
2023-02-21T22:19:43.604Z,9.08
2023-02-21T22:22:11.394Z,9.08
2023-02-21T22:24:40.583Z,8.95
2023-02-21T22:27:08.500Z,8.89
2023-02-21T22:29:35.988Z,8.85
2023-02-21T22:32:03.698Z,8.97
2023-02-21T22:34:31.450Z,9.00
2023-02-21T22:36:59.072Z,9.03
2023-02-21T22:39:27.400Z,8.99
2023-02-21T22:41:55.330Z,8.98
2023-02-21T22:44:26.573Z,9.00
2023-02-21T22:46:58.753Z,8.93
2023-02-21T22:49:27.503Z,8.93
2023-02-21T22:51:57.637Z,8.91
2023-02-21T22:54:26.563Z,8.91
2023-02-21T22:57:03.538Z,8.99
2023-02-21T22:59:34.265Z,9.13
2023-02-21T23:02:03.199Z,9.05
2023-02-21T23:04:37.535Z,9.07
2023-02-21T23:07:05.713Z,9.01
2023-02-21T23:09:37.052Z,9.04
2023-02-21T23:12:05.938Z,8.98
2023-02-21T23:14:36.679Z,8.93
2023-02-21T23:17:04.246Z,8.91
2023-02-21T23:19:32.273Z,8.80
2023-02-21T23:22:00.602Z,8.85
2023-02-21T23:24:28.294Z,8.70
2023-02-21T23:26:55.967Z,8.66
2023-02-21T23:29:25.251Z,8.71
2023-02-21T23:31:58.082Z,8.56
2023-02-21T23:34:40.542Z,8.60
2023-02-21T23:37:12.189Z,8.58
2023-02-21T23:39:42.165Z,8.60
2023-02-21T23:42:11.026Z,8.47
2023-02-21T23:44:38.929Z,8.41
2023-02-21T23:47:06.804Z,8.37
2023-02-21T23:49:34.576Z,8.35
2023-02-21T23:52:02.149Z,8.34
2023-02-21T23:54:31.232Z,8.24
2023-02-21T23:57:00.842Z,8.24
2023-02-21T23:59:28.980Z,8.19
